Terminal Aerodrome Forecast
Issued by NWS Jackson, MS

Home | Current Version | Previous Version | Text Only | Print | Product List | Glossary On
Versions: 1 2 3 4 5 6 7 8 9 10 11 12 13 14 15 16
000
FTUS44 KJAN 271723 AAA
TAFGWO
TAF AMD
KGWO 271723Z 2717/2818 06014G20KT P6SM BKN250
     FM280100 05011KT P6SM OVC250
     FM280700 04013KT 6SM -SHRA OVC035
     FM280900 05012KT 5SM -TSRA OVC015CB
     FM281200 04010KT 3SM BR OVC007
     FM281400 06012KT 5SM -RA OVC007=

USA.gov is the U.S. government's official web portal to all federal, state and local government web resources and services.